sensor_id;sensor_type;location;lat;lon;timestamp;temperature;humidity
2873;DHT22;1444;49.166;7.312;2022-10-16T00:02:13;17.10;99.90
2873;DHT22;1444;49.166;7.312;2022-10-16T00:04:40;17.10;99.90
2873;DHT22;1444;49.166;7.312;2022-10-16T00:07:06;17.20;99.90
2873;DHT22;1444;49.166;7.312;2022-10-16T00:09:33;17.20;99.90
2873;DHT22;1444;49.166;7.312;2022-10-16T00:12:01;17.20;99.90
2873;DHT22;1444;49.166;7.312;2022-10-16T00:14:29;17.20;99.90
2873;DHT22;1444;49.166;7.312;2022-10-16T00:16:56;17.10;99.90
2873;DHT22;1444;49.166;7.312;2022-10-16T00:19:22;17.20;99.90
2873;DHT22;1444;49.166;7.312;2022-10-16T00:21:49;17.30;99.90
2873;DHT22;1444;49.166;7.312;2022-10-16T00:24:16;17.40;99.90
2873;DHT22;1444;49.166;7.312;2022-10-16T00:26:43;17.40;99.90
2873;DHT22;1444;49.166;7.312;2022-10-16T00:29:11;17.40;99.90
2873;DHT22;1444;49.166;7.312;2022-10-16T00:31:38;17.30;99.90
2873;DHT22;1444;49.166;7.312;2022-10-16T00:34:04;17.30;99.90
2873;DHT22;1444;49.166;7.312;2022-10-16T00:36:31;17.30;99.90
2873;DHT22;1444;49.166;7.312;2022-10-16T00:38:58;17.30;99.90
2873;DHT22;1444;49.166;7.312;2022-10-16T00:41:26;17.30;99.90
2873;DHT22;1444;49.166;7.312;2022-10-16T00:43:55;17.40;99.90
2873;DHT22;1444;49.166;7.312;2022-10-16T00:46:25;17.40;99.90
2873;DHT22;1444;49.166;7.312;2022-10-16T00:48:55;17.40;99.90
2873;DHT22;1444;49.166;7.312;2022-10-16T00:51:27;16.40;99.90
2873;DHT22;1444;49.166;7.312;2022-10-16T00:53:55;17.30;99.90
2873;DHT22;1444;49.166;7.312;2022-10-16T00:56:22;17.30;99.90
2873;DHT22;1444;49.166;7.312;2022-10-16T00:58:49;17.30;99.90
2873;DHT22;1444;49.166;7.312;2022-10-16T01:03:44;17.50;99.90
2873;DHT22;1444;49.166;7.312;2022-10-16T01:06:25;17.40;99.90
2873;DHT22;1444;49.166;7.312;2022-10-16T01:11:53;17.30;99.90
2873;DHT22;1444;49.166;7.312;2022-10-16T01:14:29;17.20;99.90
2873;DHT22;1444;49.166;7.312;2022-10-16T01:17:01;17.10;99.90
2873;DHT22;1444;49.166;7.312;2022-10-16T01:19:44;17.10;99.90
2873;DHT22;1444;49.166;7.312;2022-10-16T01:22:17;17.10;99.90
2873;DHT22;1444;49.166;7.312;2022-10-16T01:24:48;17.20;99.90
2873;DHT22;1444;49.166;7.312;2022-10-16T01:27:21;17.30;99.90
2873;DHT22;1444;49.166;7.312;2022-10-16T01:29:53;17.40;99.90
2873;DHT22;1444;49.166;7.312;2022-10-16T01:32:30;17.50;99.90
2873;DHT22;1444;49.166;7.312;2022-10-16T01:35:02;17.50;99.90
2873;DHT22;1444;49.166;7.312;2022-10-16T01:37:34;17.40;99.90
2873;DHT22;1444;49.166;7.312;2022-10-16T01:40:05;17.40;99.90
2873;DHT22;1444;49.166;7.312;2022-10-16T01:42:38;17.50;99.90
2873;DHT22;1444;49.166;7.312;2022-10-16T01:45:07;17.50;99.90
2873;DHT22;1444;49.166;7.312;2022-10-16T01:47:37;17.50;99.90
2873;DHT22;1444;49.166;7.312;2022-10-16T01:50:07;17.60;99.90
2873;DHT22;1444;49.166;7.312;2022-10-16T01:52:36;17.60;99.90
2873;DHT22;1444;49.166;7.312;2022-10-16T01:55:06;17.50;99.90
2873;DHT22;1444;49.166;7.312;2022-10-16T01:57:38;17.50;99.90
2873;DHT22;1444;49.166;7.312;2022-10-16T02:00:09;17.40;99.90
2873;DHT22;1444;49.166;7.312;2022-10-16T02:02:39;17.40;99.90
2873;DHT22;1444;49.166;7.312;2022-10-16T02:05:13;17.40;99.90
2873;DHT22;1444;49.166;7.312;2022-10-16T02:07:41;17.50;99.90
2873;DHT22;1444;49.166;7.312;2022-10-16T02:10:09;17.30;99.90
2873;DHT22;1444;49.166;7.312;2022-10-16T02:12:39;17.20;99.90
2873;DHT22;1444;49.166;7.312;2022-10-16T02:15:08;17.30;99.90
2873;DHT22;1444;49.166;7.312;2022-10-16T02:17:35;17.40;99.90
2873;DHT22;1444;49.166;7.312;2022-10-16T02:20:02;17.50;99.90
2873;DHT22;1444;49.166;7.312;2022-10-16T02:22:32;17.60;99.90
2873;DHT22;1444;49.166;7.312;2022-10-16T02:25:05;17.70;99.90
2873;DHT22;1444;49.166;7.312;2022-10-16T02:27:35;17.80;99.90
2873;DHT22;1444;49.166;7.312;2022-10-16T02:30:10;17.80;99.90
2873;DHT22;1444;49.166;7.312;2022-10-16T02:32:41;17.80;99.90
2873;DHT22;1444;49.166;7.312;2022-10-16T02:35:09;17.90;99.90
2873;DHT22;1444;49.166;7.312;2022-10-16T02:37:37;17.90;99.90
2873;DHT22;1444;49.166;7.312;2022-10-16T02:40:06;17.90;99.90
2873;DHT22;1444;49.166;7.312;2022-10-16T02:42:34;17.90;99.90
2873;DHT22;1444;49.166;7.312;2022-10-16T02:45:01;17.90;99.90
2873;DHT22;1444;49.166;7.312;2022-10-16T02:47:29;17.90;99.90
2873;DHT22;1444;49.166;7.312;2022-10-16T02:49:55;17.80;99.90
2873;DHT22;1444;49.166;7.312;2022-10-16T02:52:22;17.70;99.90
2873;DHT22;1444;49.166;7.312;2022-10-16T02:54:49;17.70;99.90
2873;DHT22;1444;49.166;7.312;2022-10-16T02:57:16;17.70;99.90
2873;DHT22;1444;49.166;7.312;2022-10-16T02:59:42;17.70;99.90
2873;DHT22;1444;49.166;7.312;2022-10-16T03:02:09;17.60;99.90
2873;DHT22;1444;49.166;7.312;2022-10-16T03:04:37;17.60;99.90
2873;DHT22;1444;49.166;7.312;2022-10-16T03:07:04;17.60;99.90
2873;DHT22;1444;49.166;7.312;2022-10-16T03:09:31;17.70;99.90
2873;DHT22;1444;49.166;7.312;2022-10-16T03:11:57;17.70;99.90
2873;DHT22;1444;49.166;7.312;2022-10-16T03:14:24;17.60;99.90
2873;DHT22;1444;49.166;7.312;2022-10-16T03:16:51;17.70;99.90
2873;DHT22;1444;49.166;7.312;2022-10-16T03:19:18;17.80;99.90
2873;DHT22;1444;49.166;7.312;2022-10-16T03:21:46;17.80;99.90
2873;DHT22;1444;49.166;7.312;2022-10-16T03:24:13;17.90;99.90
2873;DHT22;1444;49.166;7.312;2022-10-16T03:26:40;17.90;99.90
2873;DHT22;1444;49.166;7.312;2022-10-16T03:29:06;17.90;99.90
2873;DHT22;1444;49.166;7.312;2022-10-16T03:31:33;17.90;99.90
2873;DHT22;1444;49.166;7.312;2022-10-16T03:34:00;17.90;99.90
2873;DHT22;1444;49.166;7.312;2022-10-16T03:36:26;18.00;99.90
2873;DHT22;1444;49.166;7.312;2022-10-16T03:38:55;18.00;99.90
2873;DHT22;1444;49.166;7.312;2022-10-16T03:41:21;17.90;99.90
2873;DHT22;1444;49.166;7.312;2022-10-16T03:43:48;17.90;99.90
2873;DHT22;1444;49.166;7.312;2022-10-16T03:46:15;17.80;99.90
2873;DHT22;1444;49.166;7.312;2022-10-16T03:48:41;17.60;99.90
2873;DHT22;1444;49.166;7.312;2022-10-16T03:51:08;17.40;99.90
2873;DHT22;1444;49.166;7.312;2022-10-16T03:53:35;17.30;99.90
2873;DHT22;1444;49.166;7.312;2022-10-16T03:56:03;17.30;99.90
2873;DHT22;1444;49.166;7.312;2022-10-16T03:58:30;17.30;99.90
2873;DHT22;1444;49.166;7.312;2022-10-16T04:00:56;17.40;99.90
2873;DHT22;1444;49.166;7.312;2022-10-16T04:03:23;17.50;99.90
2873;DHT22;1444;49.166;7.312;2022-10-16T04:05:50;17.60;99.90
2873;DHT22;1444;49.166;7.312;2022-10-16T04:08:17;17.70;99.90
2873;DHT22;1444;49.166;7.312;2022-10-16T04:10:44;17.70;99.90
2873;DHT22;1444;49.166;7.312;2022-10-16T04:13:12;17.70;99.90
2873;DHT22;1444;49.166;7.312;2022-10-16T04:15:39;17.60;99.90
2873;DHT22;1444;49.166;7.312;2022-10-16T04:18:05;17.40;99.90
2873;DHT22;1444;49.166;7.312;2022-10-16T04:20:33;17.30;99.90
2873;DHT22;1444;49.166;7.312;2022-10-16T04:23:00;17.30;99.90
2873;DHT22;1444;49.166;7.312;2022-10-16T04:25:26;17.40;99.90
2873;DHT22;1444;49.166;7.312;2022-10-16T04:27:53;17.40;99.90
2873;DHT22;1444;49.166;7.312;2022-10-16T04:30:22;17.30;99.90
2873;DHT22;1444;49.166;7.312;2022-10-16T04:32:49;17.30;99.90
2873;DHT22;1444;49.166;7.312;2022-10-16T04:35:16;17.20;99.90
2873;DHT22;1444;49.166;7.312;2022-10-16T04:37:43;17.10;99.90
2873;DHT22;1444;49.166;7.312;2022-10-16T04:40:10;17.00;99.90
2873;DHT22;1444;49.166;7.312;2022-10-16T04:42:37;16.90;99.90
2873;DHT22;1444;49.166;7.312;2022-10-16T04:45:05;16.80;99.90
2873;DHT22;1444;49.166;7.312;2022-10-16T04:47:34;16.80;99.90
2873;DHT22;1444;49.166;7.312;2022-10-16T04:50:00;16.90;99.90
2873;DHT22;1444;49.166;7.312;2022-10-16T04:52:28;17.00;99.90
2873;DHT22;1444;49.166;7.312;2022-10-16T04:54:56;17.10;99.90
2873;DHT22;1444;49.166;7.312;2022-10-16T04:57:26;17.10;99.90
2873;DHT22;1444;49.166;7.312;2022-10-16T04:59:53;17.10;99.90
2873;DHT22;1444;49.166;7.312;2022-10-16T05:02:20;17.20;99.90
2873;DHT22;1444;49.166;7.312;2022-10-16T05:04:48;17.20;99.90
2873;DHT22;1444;49.166;7.312;2022-10-16T05:07:14;17.30;99.90
2873;DHT22;1444;49.166;7.312;2022-10-16T05:09:41;17.30;99.90
2873;DHT22;1444;49.166;7.312;2022-10-16T05:12:08;17.20;99.90
2873;DHT22;1444;49.166;7.312;2022-10-16T05:14:35;17.10;99.90
2873;DHT22;1444;49.166;7.312;2022-10-16T05:17:01;17.00;99.90
2873;DHT22;1444;49.166;7.312;2022-10-16T05:19:28;17.00;99.90
2873;DHT22;1444;49.166;7.312;2022-10-16T05:21:56;17.00;99.90
2873;DHT22;1444;49.166;7.312;2022-10-16T05:24:23;17.10;99.90
2873;DHT22;1444;49.166;7.312;2022-10-16T05:26:50;17.20;99.90
2873;DHT22;1444;49.166;7.312;2022-10-16T05:29:17;17.20;99.90
2873;DHT22;1444;49.166;7.312;2022-10-16T05:31:43;17.30;99.90
2873;DHT22;1444;49.166;7.312;2022-10-16T05:34:10;17.20;99.90
2873;DHT22;1444;49.166;7.312;2022-10-16T05:36:37;17.30;99.90
2873;DHT22;1444;49.166;7.312;2022-10-16T05:39:05;17.30;99.90
2873;DHT22;1444;49.166;7.312;2022-10-16T05:41:32;17.30;99.90
2873;DHT22;1444;49.166;7.312;2022-10-16T05:43:58;17.30;99.90
2873;DHT22;1444;49.166;7.312;2022-10-16T05:46:25;17.20;99.90
2873;DHT22;1444;49.166;7.312;2022-10-16T05:48:52;17.10;99.90
2873;DHT22;1444;49.166;7.312;2022-10-16T05:51:19;17.10;99.90
2873;DHT22;1444;49.166;7.312;2022-10-16T05:53:46;17.10;99.90
2873;DHT22;1444;49.166;7.312;2022-10-16T05:56:14;17.20;99.90
2873;DHT22;1444;49.166;7.312;2022-10-16T05:58:41;17.20;99.90
2873;DHT22;1444;49.166;7.312;2022-10-16T06:01:11;17.20;99.90
2873;DHT22;1444;49.166;7.312;2022-10-16T06:03:38;17.20;99.90
2873;DHT22;1444;49.166;7.312;2022-10-16T06:06:09;17.10;99.90
2873;DHT22;1444;49.166;7.312;2022-10-16T06:08:35;17.10;99.90
2873;DHT22;1444;49.166;7.312;2022-10-16T06:11:03;17.10;99.90
2873;DHT22;1444;49.166;7.312;2022-10-16T06:13:31;17.20;99.90
2873;DHT22;1444;49.166;7.312;2022-10-16T06:15:59;17.30;99.90
2873;DHT22;1444;49.166;7.312;2022-10-16T06:18:27;17.30;99.90
2873;DHT22;1444;49.166;7.312;2022-10-16T06:20:54;17.30;99.90
2873;DHT22;1444;49.166;7.312;2022-10-16T06:23:21;17.30;99.90
2873;DHT22;1444;49.166;7.312;2022-10-16T06:25:48;17.40;99.90
2873;DHT22;1444;49.166;7.312;2022-10-16T06:28:15;17.40;99.90
2873;DHT22;1444;49.166;7.312;2022-10-16T06:30:43;17.40;99.90
2873;DHT22;1444;49.166;7.312;2022-10-16T06:33:10;17.40;99.90
2873;DHT22;1444;49.166;7.312;2022-10-16T06:35:36;17.30;99.90
2873;DHT22;1444;49.166;7.312;2022-10-16T06:38:03;17.20;99.90
2873;DHT22;1444;49.166;7.312;2022-10-16T06:40:30;17.20;99.90
2873;DHT22;1444;49.166;7.312;2022-10-16T06:42:57;17.20;99.90
2873;DHT22;1444;49.166;7.312;2022-10-16T06:45:24;17.30;99.90
2873;DHT22;1444;49.166;7.312;2022-10-16T06:47:52;17.30;99.90
2873;DHT22;1444;49.166;7.312;2022-10-16T06:50:19;17.50;99.90
2873;DHT22;1444;49.166;7.312;2022-10-16T06:52:45;17.60;99.90
2873;DHT22;1444;49.166;7.312;2022-10-16T06:55:12;17.70;99.90
2873;DHT22;1444;49.166;7.312;2022-10-16T06:57:40;17.90;99.90
2873;DHT22;1444;49.166;7.312;2022-10-16T07:00:07;18.00;99.90
2873;DHT22;1444;49.166;7.312;2022-10-16T07:02:34;18.00;99.90
2873;DHT22;1444;49.166;7.312;2022-10-16T07:05:02;17.60;99.90
2873;DHT22;1444;49.166;7.312;2022-10-16T07:07:29;17.40;99.90
2873;DHT22;1444;49.166;7.312;2022-10-16T07:09:56;17.40;99.90
2873;DHT22;1444;49.166;7.312;2022-10-16T07:12:22;17.30;99.90
2873;DHT22;1444;49.166;7.312;2022-10-16T07:14:49;17.40;99.90
2873;DHT22;1444;49.166;7.312;2022-10-16T07:17:17;18.00;99.90
2873;DHT22;1444;49.166;7.312;2022-10-16T07:19:44;18.40;99.90
2873;DHT22;1444;49.166;7.312;2022-10-16T07:22:12;18.70;99.90
2873;DHT22;1444;49.166;7.312;2022-10-16T07:24:39;18.80;99.90
2873;DHT22;1444;49.166;7.312;2022-10-16T07:27:06;18.90;99.90
2873;DHT22;1444;49.166;7.312;2022-10-16T07:29:32;19.00;99.90
2873;DHT22;1444;49.166;7.312;2022-10-16T07:31:59;19.00;99.90
2873;DHT22;1444;49.166;7.312;2022-10-16T07:34:26;19.00;99.90
2873;DHT22;1444;49.166;7.312;2022-10-16T07:36:53;18.90;99.90
2873;DHT22;1444;49.166;7.312;2022-10-16T07:39:22;18.90;99.90
2873;DHT22;1444;49.166;7.312;2022-10-16T07:41:48;18.90;99.90
2873;DHT22;1444;49.166;7.312;2022-10-16T07:44:15;18.90;99.90
2873;DHT22;1444;49.166;7.312;2022-10-16T07:46:42;18.80;99.90
2873;DHT22;1444;49.166;7.312;2022-10-16T07:49:09;18.90;99.90
2873;DHT22;1444;49.166;7.312;2022-10-16T07:51:36;18.80;99.90
2873;DHT22;1444;49.166;7.312;2022-10-16T07:54:03;18.70;99.90
2873;DHT22;1444;49.166;7.312;2022-10-16T07:56:32;18.60;99.90
2873;DHT22;1444;49.166;7.312;2022-10-16T07:58:58;18.50;99.90
2873;DHT22;1444;49.166;7.312;2022-10-16T08:01:25;18.50;99.90
2873;DHT22;1444;49.166;7.312;2022-10-16T08:03:52;18.60;99.90
2873;DHT22;1444;49.166;7.312;2022-10-16T08:06:21;18.60;99.90
2873;DHT22;1444;49.166;7.312;2022-10-16T08:08:48;18.60;99.90
2873;DHT22;1444;49.166;7.312;2022-10-16T08:11:15;18.60;99.90
2873;DHT22;1444;49.166;7.312;2022-10-16T08:13:43;18.60;99.90
2873;DHT22;1444;49.166;7.312;2022-10-16T08:16:10;18.60;99.90
2873;DHT22;1444;49.166;7.312;2022-10-16T08:18:37;18.60;99.90
2873;DHT22;1444;49.166;7.312;2022-10-16T08:21:06;18.70;99.90
2873;DHT22;1444;49.166;7.312;2022-10-16T08:23:34;18.80;99.90
2873;DHT22;1444;49.166;7.312;2022-10-16T08:26:03;18.80;99.90
2873;DHT22;1444;49.166;7.312;2022-10-16T08:28:30;19.00;99.90
2873;DHT22;1444;49.166;7.312;2022-10-16T08:31:06;19.30;99.90
2873;DHT22;1444;49.166;7.312;2022-10-16T08:33:33;19.30;99.90
2873;DHT22;1444;49.166;7.312;2022-10-16T08:36:01;19.40;99.90
2873;DHT22;1444;49.166;7.312;2022-10-16T08:38:28;19.70;99.90
2873;DHT22;1444;49.166;7.312;2022-10-16T08:41:08;19.70;99.90
2873;DHT22;1444;49.166;7.312;2022-10-16T08:43:50;19.80;99.90
2873;DHT22;1444;49.166;7.312;2022-10-16T08:46:40;19.80;99.90
2873;DHT22;1444;49.166;7.312;2022-10-16T08:49:12;20.00;99.90
2873;DHT22;1444;49.166;7.312;2022-10-16T08:51:40;20.00;99.90
2873;DHT22;1444;49.166;7.312;2022-10-16T08:54:25;20.00;99.90
2873;DHT22;1444;49.166;7.312;2022-10-16T08:56:54;20.10;99.90
2873;DHT22;1444;49.166;7.312;2022-10-16T08:59:22;19.90;99.90
2873;DHT22;1444;49.166;7.312;2022-10-16T09:01:51;19.80;99.90
2873;DHT22;1444;49.166;7.312;2022-10-16T09:04:39;19.90;99.90
2873;DHT22;1444;49.166;7.312;2022-10-16T09:09:59;20.00;99.90
2873;DHT22;1444;49.166;7.312;2022-10-16T09:12:34;19.90;99.90
2873;DHT22;1444;49.166;7.312;2022-10-16T09:15:13;20.00;99.90
2873;DHT22;1444;49.166;7.312;2022-10-16T09:17:48;20.00;99.90
2873;DHT22;1444;49.166;7.312;2022-10-16T09:20:31;19.90;99.90
2873;DHT22;1444;49.166;7.312;2022-10-16T09:23:10;19.90;99.90
2873;DHT22;1444;49.166;7.312;2022-10-16T09:25:39;19.80;99.90
2873;DHT22;1444;49.166;7.312;2022-10-16T09:28:07;19.90;99.90
2873;DHT22;1444;49.166;7.312;2022-10-16T09:30:35;19.90;99.90
2873;DHT22;1444;49.166;7.312;2022-10-16T09:33:03;20.10;99.90
2873;DHT22;1444;49.166;7.312;2022-10-16T09:35:35;20.20;99.90
2873;DHT22;1444;49.166;7.312;2022-10-16T09:38:03;20.30;99.90
2873;DHT22;1444;49.166;7.312;2022-10-16T09:40:31;20.30;99.90
2873;DHT22;1444;49.166;7.312;2022-10-16T09:43:03;20.20;99.90
2873;DHT22;1444;49.166;7.312;2022-10-16T09:45:35;20.10;99.90
2873;DHT22;1444;49.166;7.312;2022-10-16T09:48:10;20.00;99.90
2873;DHT22;1444;49.166;7.312;2022-10-16T09:50:37;20.00;99.90
2873;DHT22;1444;49.166;7.312;2022-10-16T09:53:05;20.20;99.90
2873;DHT22;1444;49.166;7.312;2022-10-16T09:55:32;20.20;99.90
2873;DHT22;1444;49.166;7.312;2022-10-16T09:57:59;20.50;99.90
2873;DHT22;1444;49.166;7.312;2022-10-16T10:00:25;20.70;99.90
2873;DHT22;1444;49.166;7.312;2022-10-16T10:02:53;20.70;99.90
2873;DHT22;1444;49.166;7.312;2022-10-16T10:05:24;21.00;99.90
2873;DHT22;1444;49.166;7.312;2022-10-16T10:07:56;21.00;99.90
2873;DHT22;1444;49.166;7.312;2022-10-16T10:10:25;20.90;99.90
2873;DHT22;1444;49.166;7.312;2022-10-16T10:12:52;20.90;99.90
2873;DHT22;1444;49.166;7.312;2022-10-16T10:15:20;21.00;99.90
2873;DHT22;1444;49.166;7.312;2022-10-16T10:17:50;21.00;99.90
2873;DHT22;1444;49.166;7.312;2022-10-16T10:20:27;21.20;99.90
2873;DHT22;1444;49.166;7.312;2022-10-16T10:22:54;21.30;99.90
2873;DHT22;1444;49.166;7.312;2022-10-16T10:25:30;21.50;99.90
2873;DHT22;1444;49.166;7.312;2022-10-16T10:31:02;21.50;99.90
2873;DHT22;1444;49.166;7.312;2022-10-16T10:33:37;21.30;99.90
2873;DHT22;1444;49.166;7.312;2022-10-16T10:36:16;21.20;99.90
2873;DHT22;1444;49.166;7.312;2022-10-16T10:38:49;21.10;99.90
2873;DHT22;1444;49.166;7.312;2022-10-16T10:46:51;21.30;99.90
2873;DHT22;1444;49.166;7.312;2022-10-16T10:49:45;21.30;99.90
2873;DHT22;1444;49.166;7.312;2022-10-16T10:52:34;21.40;99.90
2873;DHT22;1444;49.166;7.312;2022-10-16T10:55:13;21.40;99.90
2873;DHT22;1444;49.166;7.312;2022-10-16T10:58:00;21.40;99.90
2873;DHT22;1444;49.166;7.312;2022-10-16T11:00:43;21.40;99.90
2873;DHT22;1444;49.166;7.312;2022-10-16T11:03:20;21.40;99.90
2873;DHT22;1444;49.166;7.312;2022-10-16T11:05:57;21.50;99.90
2873;DHT22;1444;49.166;7.312;2022-10-16T11:08:31;21.60;99.90
2873;DHT22;1444;49.166;7.312;2022-10-16T11:11:01;21.70;99.90
2873;DHT22;1444;49.166;7.312;2022-10-16T11:13:33;21.70;99.90
2873;DHT22;1444;49.166;7.312;2022-10-16T11:16:08;21.60;99.90
2873;DHT22;1444;49.166;7.312;2022-10-16T11:18:45;21.50;99.90
2873;DHT22;1444;49.166;7.312;2022-10-16T11:21:17;21.20;99.90
2873;DHT22;1444;49.166;7.312;2022-10-16T11:23:51;21.20;99.90
2873;DHT22;1444;49.166;7.312;2022-10-16T11:26:23;21.20;99.90
2873;DHT22;1444;49.166;7.312;2022-10-16T11:28:51;21.30;99.90
2873;DHT22;1444;49.166;7.312;2022-10-16T11:31:26;21.20;99.90
2873;DHT22;1444;49.166;7.312;2022-10-16T11:33:59;21.20;99.90
2873;DHT22;1444;49.166;7.312;2022-10-16T11:36:32;21.10;99.90
2873;DHT22;1444;49.166;7.312;2022-10-16T11:39:08;21.10;99.90
2873;DHT22;1444;49.166;7.312;2022-10-16T11:41:43;21.20;99.90
2873;DHT22;1444;49.166;7.312;2022-10-16T11:44:24;21.20;99.90
2873;DHT22;1444;49.166;7.312;2022-10-16T11:47:19;21.20;99.90
2873;DHT22;1444;49.166;7.312;2022-10-16T11:49:52;21.20;99.90
2873;DHT22;1444;49.166;7.312;2022-10-16T11:52:24;21.00;99.90
2873;DHT22;1444;49.166;7.312;2022-10-16T11:54:57;20.90;99.90
2873;DHT22;1444;49.166;7.312;2022-10-16T11:57:29;20.90;99.90
2873;DHT22;1444;49.166;7.312;2022-10-16T12:00:01;20.90;99.90
2873;DHT22;1444;49.166;7.312;2022-10-16T12:02:40;20.90;99.90
2873;DHT22;1444;49.166;7.312;2022-10-16T12:05:18;20.80;99.90
2873;DHT22;1444;49.166;7.312;2022-10-16T12:07:54;20.80;99.90
2873;DHT22;1444;49.166;7.312;2022-10-16T12:10:25;20.80;99.90
2873;DHT22;1444;49.166;7.312;2022-10-16T12:12:53;20.80;99.90
2873;DHT22;1444;49.166;7.312;2022-10-16T12:15:23;20.80;99.90
2873;DHT22;1444;49.166;7.312;2022-10-16T12:17:50;20.90;99.90
2873;DHT22;1444;49.166;7.312;2022-10-16T12:20:23;20.90;99.90
2873;DHT22;1444;49.166;7.312;2022-10-16T12:22:53;20.90;99.90
2873;DHT22;1444;49.166;7.312;2022-10-16T12:25:24;20.90;99.90
2873;DHT22;1444;49.166;7.312;2022-10-16T12:27:58;20.90;99.90
2873;DHT22;1444;49.166;7.312;2022-10-16T12:30:27;20.90;99.90
2873;DHT22;1444;49.166;7.312;2022-10-16T12:32:56;20.80;99.90
2873;DHT22;1444;49.166;7.312;2022-10-16T12:35:26;20.80;99.90
2873;DHT22;1444;49.166;7.312;2022-10-16T12:37:54;20.80;99.90
2873;DHT22;1444;49.166;7.312;2022-10-16T12:40:33;20.80;99.90
2873;DHT22;1444;49.166;7.312;2022-10-16T12:43:12;20.80;99.90
2873;DHT22;1444;49.166;7.312;2022-10-16T12:45:39;20.80;99.90
2873;DHT22;1444;49.166;7.312;2022-10-16T12:48:20;20.70;99.90
2873;DHT22;1444;49.166;7.312;2022-10-16T12:50:48;20.70;99.90
2873;DHT22;1444;49.166;7.312;2022-10-16T12:53:20;20.60;99.90
2873;DHT22;1444;49.166;7.312;2022-10-16T12:55:57;20.70;99.90
2873;DHT22;1444;49.166;7.312;2022-10-16T12:58:38;20.60;99.90
2873;DHT22;1444;49.166;7.312;2022-10-16T13:01:16;20.70;99.90
2873;DHT22;1444;49.166;7.312;2022-10-16T13:06:32;20.80;99.90
2873;DHT22;1444;49.166;7.312;2022-10-16T13:09:23;20.70;99.90
2873;DHT22;1444;49.166;7.312;2022-10-16T13:12:05;20.80;99.90
2873;DHT22;1444;49.166;7.312;2022-10-16T13:17:45;20.90;99.90
2873;DHT22;1444;49.166;7.312;2022-10-16T13:20:21;20.90;99.90
2873;DHT22;1444;49.166;7.312;2022-10-16T13:23:09;20.90;99.90
2873;DHT22;1444;49.166;7.312;2022-10-16T13:25:49;21.00;99.90
2873;DHT22;1444;49.166;7.312;2022-10-16T13:28:27;21.30;99.90
2873;DHT22;1444;49.166;7.312;2022-10-16T13:30:56;21.40;99.90
2873;DHT22;1444;49.166;7.312;2022-10-16T13:33:30;21.50;99.90
2873;DHT22;1444;49.166;7.312;2022-10-16T13:35:59;21.40;99.90
2873;DHT22;1444;49.166;7.312;2022-10-16T13:38:27;21.50;99.90
2873;DHT22;1444;49.166;7.312;2022-10-16T13:40:55;21.50;99.90
2873;DHT22;1444;49.166;7.312;2022-10-16T13:43:27;21.50;99.90
2873;DHT22;1444;49.166;7.312;2022-10-16T13:46:00;21.60;99.90
2873;DHT22;1444;49.166;7.312;2022-10-16T13:48:27;21.70;99.90
2873;DHT22;1444;49.166;7.312;2022-10-16T13:51:03;21.70;99.90
2873;DHT22;1444;49.166;7.312;2022-10-16T13:53:33;21.70;99.90
2873;DHT22;1444;49.166;7.312;2022-10-16T13:56:03;21.70;99.90
2873;DHT22;1444;49.166;7.312;2022-10-16T13:58:31;21.70;99.90
2873;DHT22;1444;49.166;7.312;2022-10-16T14:01:00;21.80;99.90
2873;DHT22;1444;49.166;7.312;2022-10-16T14:03:28;21.80;99.90
2873;DHT22;1444;49.166;7.312;2022-10-16T14:05:57;21.80;99.90
2873;DHT22;1444;49.166;7.312;2022-10-16T14:08:25;21.80;99.90
2873;DHT22;1444;49.166;7.312;2022-10-16T14:10:55;21.80;99.90
2873;DHT22;1444;49.166;7.312;2022-10-16T14:13:29;21.60;99.90
2873;DHT22;1444;49.166;7.312;2022-10-16T14:16:07;21.50;99.90
2873;DHT22;1444;49.166;7.312;2022-10-16T14:18:34;21.60;99.90
2873;DHT22;1444;49.166;7.312;2022-10-16T14:21:06;21.60;99.90
2873;DHT22;1444;49.166;7.312;2022-10-16T14:23:36;21.60;99.90
2873;DHT22;1444;49.166;7.312;2022-10-16T14:26:13;21.70;99.90
2873;DHT22;1444;49.166;7.312;2022-10-16T14:28:42;21.70;99.90
2873;DHT22;1444;49.166;7.312;2022-10-16T14:31:38;21.70;99.90
2873;DHT22;1444;49.166;7.312;2022-10-16T14:34:28;21.70;99.90
2873;DHT22;1444;49.166;7.312;2022-10-16T14:36:56;21.70;99.90
2873;DHT22;1444;49.166;7.312;2022-10-16T14:39:26;21.80;99.90
2873;DHT22;1444;49.166;7.312;2022-10-16T14:41:56;21.80;99.90
2873;DHT22;1444;49.166;7.312;2022-10-16T14:44:28;22.00;99.90
2873;DHT22;1444;49.166;7.312;2022-10-16T14:46:58;21.60;99.90
2873;DHT22;1444;49.166;7.312;2022-10-16T14:49:33;22.30;99.90
2873;DHT22;1444;49.166;7.312;2022-10-16T14:52:00;22.40;99.90
2873;DHT22;1444;49.166;7.312;2022-10-16T14:54:28;22.40;99.90
2873;DHT22;1444;49.166;7.312;2022-10-16T14:56:57;22.40;99.90
2873;DHT22;1444;49.166;7.312;2022-10-16T14:59:27;22.30;99.90
2873;DHT22;1444;49.166;7.312;2022-10-16T15:01:55;22.20;99.90
2873;DHT22;1444;49.166;7.312;2022-10-16T15:04:24;22.20;99.90
2873;DHT22;1444;49.166;7.312;2022-10-16T15:06:51;22.00;99.90
2873;DHT22;1444;49.166;7.312;2022-10-16T15:09:18;22.00;99.90
2873;DHT22;1444;49.166;7.312;2022-10-16T15:11:45;22.00;99.90
2873;DHT22;1444;49.166;7.312;2022-10-16T15:14:13;22.00;99.90
2873;DHT22;1444;49.166;7.312;2022-10-16T15:16:40;22.00;99.90
2873;DHT22;1444;49.166;7.312;2022-10-16T15:19:07;22.00;99.90
2873;DHT22;1444;49.166;7.312;2022-10-16T15:21:35;22.00;99.90
2873;DHT22;1444;49.166;7.312;2022-10-16T15:24:02;22.00;99.90
2873;DHT22;1444;49.166;7.312;2022-10-16T15:26:30;22.10;99.90
2873;DHT22;1444;49.166;7.312;2022-10-16T15:28:57;22.10;99.90
2873;DHT22;1444;49.166;7.312;2022-10-16T15:31:24;22.20;99.90
2873;DHT22;1444;49.166;7.312;2022-10-16T15:33:51;22.20;99.90
2873;DHT22;1444;49.166;7.312;2022-10-16T15:36:27;22.20;99.90
2873;DHT22;1444;49.166;7.312;2022-10-16T15:38:56;22.10;99.90
2873;DHT22;1444;49.166;7.312;2022-10-16T15:41:23;22.10;99.90
2873;DHT22;1444;49.166;7.312;2022-10-16T15:43:51;22.00;99.90
2873;DHT22;1444;49.166;7.312;2022-10-16T15:46:19;22.00;99.90
2873;DHT22;1444;49.166;7.312;2022-10-16T15:48:47;22.00;99.90
2873;DHT22;1444;49.166;7.312;2022-10-16T15:51:13;22.00;99.90
2873;DHT22;1444;49.166;7.312;2022-10-16T15:53:40;21.90;99.90
2873;DHT22;1444;49.166;7.312;2022-10-16T15:56:10;21.90;99.90
2873;DHT22;1444;49.166;7.312;2022-10-16T15:58:37;21.70;99.90
2873;DHT22;1444;49.166;7.312;2022-10-16T16:01:06;21.60;99.90
2873;DHT22;1444;49.166;7.312;2022-10-16T16:03:38;21.60;99.90
2873;DHT22;1444;49.166;7.312;2022-10-16T16:06:09;21.70;99.90
2873;DHT22;1444;49.166;7.312;2022-10-16T16:08:36;21.70;99.90
2873;DHT22;1444;49.166;7.312;2022-10-16T16:11:05;21.80;99.90
2873;DHT22;1444;49.166;7.312;2022-10-16T16:13:34;21.80;99.90
2873;DHT22;1444;49.166;7.312;2022-10-16T16:16:05;21.80;99.90
2873;DHT22;1444;49.166;7.312;2022-10-16T16:18:32;21.60;99.90
2873;DHT22;1444;49.166;7.312;2022-10-16T16:20:59;21.50;99.90
2873;DHT22;1444;49.166;7.312;2022-10-16T16:23:26;21.40;99.90
2873;DHT22;1444;49.166;7.312;2022-10-16T16:26:03;21.20;99.90
2873;DHT22;1444;49.166;7.312;2022-10-16T16:28:30;21.10;99.90
2873;DHT22;1444;49.166;7.312;2022-10-16T16:30:58;21.10;99.90
2873;DHT22;1444;49.166;7.312;2022-10-16T16:33:25;21.20;99.90
2873;DHT22;1444;49.166;7.312;2022-10-16T16:35:57;21.20;99.90
2873;DHT22;1444;49.166;7.312;2022-10-16T16:38:24;21.20;99.90
2873;DHT22;1444;49.166;7.312;2022-10-16T16:40:51;21.10;99.90
2873;DHT22;1444;49.166;7.312;2022-10-16T16:43:18;20.90;99.90